Time;durP1;ratioP1;P1;durP2;ratioP2;P2;SDS_P1;SDS_P2;PMS_P1;PMS_P2;Temp;Humidity;BMP_temperature;BMP_pressure;BME280_temperature;BME280_humidity;BME280_pressure;Samples;Min_cycle;Max_cycle;Signal;HPM_P1;HPM_P2
2022/01/11 00:00:31;;;;;;;5.57;3.85;;;-4.00;99.90;;;;;;5072852;28;20485;-72
2022/01/11 00:02:57;;;;;;;9.60;4.40;;;-3.90;99.90;;;;;;5072150;28;20025;-72
2022/01/11 00:07:56;;;;;;;6.97;4.43;;;-3.90;99.90;;;;;;5072556;28;20463;-72
2022/01/11 00:10:29;;;;;;;9.30;4.60;;;-3.90;99.90;;;;;;5072428;28;20028;-72
2022/01/11 00:12:56;;;;;;;7.20;4.00;;;-3.90;99.90;;;;;;5072190;28;20021;-72
2022/01/11 00:15:22;;;;;;;9.45;4.78;;;-3.80;99.90;;;;;;5071913;28;20107;-72
2022/01/11 00:17:48;;;;;;;7.03;4.20;;;-3.90;99.90;;;;;;5072117;28;20104;-72
2022/01/11 00:20:16;;;;;;;7.10;3.65;;;-3.90;99.90;;;;;;5072121;28;20198;-71
2022/01/11 00:25:38;;;;;;;6.07;3.80;;;-3.90;99.90;;;;;;5072071;28;20067;-72
2022/01/11 00:28:06;;;;;;;7.60;4.25;;;-3.80;99.90;;;;;;5071986;28;20051;-71
2022/01/11 00:30:35;;;;;;;7.63;3.88;;;-3.80;99.90;;;;;;5072142;28;20512;-72
2022/01/11 00:33:05;;;;;;;6.20;4.13;;;-3.80;99.90;;;;;;5071850;28;20045;-71
2022/01/11 00:38:08;;;;;;;8.65;3.78;;;-3.70;99.90;;;;;;5072033;28;20493;-73
2022/01/11 00:40:34;;;;;;;4.32;3.03;;;-3.70;99.90;;;;;;5072242;28;20104;-72
2022/01/11 00:43:01;;;;;;;5.97;3.60;;;-3.70;99.90;;;;;;5071568;28;20190;-73
2022/01/11 00:45:29;;;;;;;6.22;3.35;;;-3.70;99.90;;;;;;5071941;28;20039;-73
2022/01/11 00:47:55;;;;;;;5.82;3.20;;;-3.70;99.90;;;;;;5071766;28;20046;-73
2022/01/11 00:50:21;;;;;;;6.47;3.95;;;-3.60;99.90;;;;;;5071920;28;20028;-73
2022/01/11 00:52:47;;;;;;;7.95;4.38;;;-3.60;99.90;;;;;;5071987;28;20020;-73
2022/01/11 00:55:15;;;;;;;6.38;3.70;;;-3.50;99.90;;;;;;5071847;28;20100;-73
2022/01/11 00:57:40;;;;;;;6.60;3.05;;;-3.50;99.90;;;;;;5071788;28;20031;-73
2022/01/11 01:00:11;;;;;;;5.78;3.28;;;-3.50;99.90;;;;;;5071897;28;20016;-73
2022/01/11 01:02:39;;;;;;;5.75;3.47;;;-3.50;99.90;;;;;;5071933;28;20056;-73
2022/01/11 01:05:06;;;;;;;5.05;3.20;;;-3.40;99.90;;;;;;5071941;28;20044;-73
2022/01/11 01:07:31;;;;;;;5.43;3.25;;;-3.40;99.90;;;;;;5071866;28;20028;-73
2022/01/11 01:10:03;;;;;;;5.68;3.42;;;-3.40;99.90;;;;;;5071719;28;20387;-73
2022/01/11 01:12:29;;;;;;;6.60;3.47;;;-3.30;99.90;;;;;;5071882;28;20070;-73
2022/01/11 01:14:54;;;;;;;4.80;3.38;;;-3.30;99.90;;;;;;5071514;28;20021;-73
2022/01/11 01:17:20;;;;;;;5.30;3.58;;;-3.30;99.90;;;;;;5071525;28;20025;-73
2022/01/11 01:19:46;;;;;;;4.80;3.50;;;-3.30;99.90;;;;;;5071538;28;20025;-73
2022/01/11 01:22:12;;;;;;;7.45;3.30;;;-3.20;99.90;;;;;;5071493;28;20033;-73
2022/01/11 01:24:38;;;;;;;4.10;3.17;;;-3.20;99.90;;;;;;5071641;28;20041;-73
2022/01/11 01:27:04;;;;;;;4.53;3.13;;;-3.20;99.90;;;;;;5074273;28;20020;-73
2022/01/11 01:29:30;;;;;;;5.00;3.38;;;-3.10;99.90;;;;;;5075468;28;20099;-73
2022/01/11 01:31:56;;;;;;;4.43;2.70;;;-3.10;99.90;;;;;;5075072;28;20108;-72
2022/01/11 01:34:23;;;;;;;4.80;3.25;;;-3.10;99.90;;;;;;5075205;28;20489;-73
2022/01/11 01:36:49;;;;;;;3.53;2.70;;;-3.10;99.90;;;;;;5075072;28;20132;-73
2022/01/11 01:39:15;;;;;;;4.85;3.15;;;-3.00;99.90;;;;;;5075231;28;20171;-73
2022/01/11 01:41:44;;;;;;;3.83;2.63;;;-3.00;99.90;;;;;;5075138;28;20036;-73
2022/01/11 01:44:11;;;;;;;6.97;3.22;;;-2.90;99.90;;;;;;5074726;28;20048;-73
2022/01/11 01:46:36;;;;;;;4.47;2.80;;;-2.90;99.90;;;;;;5074904;28;20480;-73
2022/01/11 01:49:03;;;;;;;4.03;3.08;;;-2.80;99.90;;;;;;5075181;28;20043;-73
2022/01/11 01:51:30;;;;;;;5.75;3.08;;;-2.80;99.90;;;;;;5074844;28;20020;-73
2022/01/11 01:53:57;;;;;;;5.63;2.92;;;-2.80;99.90;;;;;;5074779;28;20480;-73
2022/01/11 01:56:23;;;;;;;5.60;3.35;;;-2.80;99.90;;;;;;5074916;28;20032;-72
2022/01/11 01:58:50;;;;;;;4.82;3.08;;;-2.70;99.90;;;;;;5074628;28;20056;-72
2022/01/11 02:01:16;;;;;;;5.45;3.08;;;-2.70;99.90;;;;;;5074843;28;20070;-72
2022/01/11 02:03:43;;;;;;;4.22;2.90;;;-2.60;99.90;;;;;;5074581;28;20028;-72
2022/01/11 02:06:15;;;;;;;5.13;3.10;;;-2.60;99.90;;;;;;5074646;28;20056;-72
2022/01/11 02:08:44;;;;;;;4.38;2.78;;;-2.60;99.90;;;;;;5074610;28;20498;-72
2022/01/11 02:11:10;;;;;;;4.20;3.15;;;-2.60;99.90;;;;;;5074546;28;20038;-73
2022/01/11 02:13:36;;;;;;;4.18;2.85;;;-2.50;99.90;;;;;;5074781;28;20020;-72
2022/01/11 02:16:04;;;;;;;7.30;3.67;;;-2.50;99.90;;;;;;5074656;28;20035;-72
2022/01/11 02:18:30;;;;;;;4.95;3.40;;;-2.50;99.90;;;;;;5074698;28;20032;-72
2022/01/11 02:20:58;;;;;;;6.32;3.28;;;-2.40;99.90;;;;;;5074447;28;20020;-74
2022/01/11 02:23:27;;;;;;;6.03;3.10;;;-2.40;99.90;;;;;;5073020;28;20025;-74
2022/01/11 02:54:56;;;;;;;4.40;2.78;;;-2.20;99.90;;;;;;5072826;28;20062;-71
2022/01/11 02:57:22;;;;;;;4.20;2.80;;;-2.20;99.90;;;;;;5073669;28;20522;-71
2022/01/11 02:59:48;;;;;;;7.60;3.05;;;-2.10;99.90;;;;;;5073695;28;20024;-72
2022/01/11 03:02:13;;;;;;;4.25;2.70;;;-2.10;99.90;;;;;;5073499;28;20491;-72
2022/01/11 03:38:19;;;;;;;6.38;3.00;;;-1.90;99.90;;;;;;5293266;22;20060;-67
2022/01/11 03:40:45;;;;;;;5.75;3.00;;;-1.90;99.90;;;;;;5071382;28;20060;-66
2022/01/11 03:43:11;;;;;;;6.18;3.20;;;-1.90;99.90;;;;;;5072744;28;20459;-67
2022/01/11 03:45:37;;;;;;;5.03;2.50;;;-1.90;99.90;;;;;;5072894;28;20410;-67
2022/01/11 03:48:05;;;;;;;5.25;2.90;;;-1.90;99.90;;;;;;5072455;28;20035;-68
2022/01/11 03:50:31;;;;;;;4.90;2.85;;;-1.80;99.90;;;;;;5072615;28;20099;-70
2022/01/11 03:53:08;;;;;;;5.07;2.58;;;-1.80;99.90;;;;;;5072683;28;20108;-68
2022/01/11 03:58:23;;;;;;;6.53;2.55;;;-1.80;99.90;;;;;;5072763;28;20039;-68
2022/01/11 04:00:50;;;;;;;3.42;2.63;;;-1.80;99.90;;;;;;5072616;28;20061;-68
2022/01/11 04:03:16;;;;;;;4.90;2.90;;;-1.80;99.90;;;;;;5072158;28;20032;-68
2022/01/11 04:05:43;;;;;;;7.90;3.25;;;-1.70;99.90;;;;;;5072378;28;20498;-68
2022/01/11 04:08:10;;;;;;;3.33;2.38;;;-1.70;99.90;;;;;;5072465;28;20086;-68
2022/01/11 04:10:36;;;;;;;4.97;2.70;;;-1.70;99.90;;;;;;5072689;28;20149;-68
2022/01/11 04:13:03;;;;;;;3.60;2.33;;;-1.70;99.90;;;;;;5072427;28;20450;-68
2022/01/11 04:15:29;;;;;;;4.25;2.60;;;-1.70;99.90;;;;;;5072422;28;20095;-70
2022/01/11 04:17:55;;;;;;;3.20;2.30;;;-1.70;99.90;;;;;;5072258;28;20033;-68
2022/01/11 04:20:22;;;;;;;3.80;2.40;;;-1.70;99.90;;;;;;5072188;28;20023;-68
2022/01/11 04:22:49;;;;;;;3.70;2.40;;;-1.70;99.90;;;;;;5072400;28;20028;-68
2022/01/11 04:25:15;;;;;;;3.47;2.35;;;-1.70;99.90;;;;;;5072046;28;20035;-68
2022/01/11 04:27:41;;;;;;;4.38;2.60;;;-1.60;99.90;;;;;;5072042;28;20024;-67
2022/01/11 04:30:07;;;;;;;2.78;2.28;;;-1.60;99.90;;;;;;5072082;28;20028;-67
2022/01/11 04:32:33;;;;;;;2.50;2.30;;;-1.60;99.90;;;;;;5072109;28;20085;-68
2022/01/11 04:34:59;;;;;;;2.65;2.10;;;-1.60;99.90;;;;;;5072176;28;20024;-68
2022/01/11 04:37:25;;;;;;;4.70;2.65;;;-1.60;99.90;;;;;;5071739;28;20190;-68
2022/01/11 04:39:51;;;;;;;3.17;2.40;;;-1.60;99.90;;;;;;5072039;28;20111;-68
2022/01/11 04:42:16;;;;;;;4.05;2.10;;;-1.60;99.90;;;;;;5071800;28;20021;-68
2022/01/11 04:44:42;;;;;;;3.00;2.50;;;-1.60;99.90;;;;;;5071961;28;20082;-68
2022/01/11 04:47:08;;;;;;;3.78;2.53;;;-1.60;99.90;;;;;;5071817;28;20025;-67
2022/01/11 04:49:34;;;;;;;2.95;2.17;;;-1.60;99.90;;;;;;5071962;28;20025;-67
2022/01/11 04:52:00;;;;;;;2.80;2.30;;;-1.60;99.90;;;;;;5071860;28;20028;-67
2022/01/11 04:54:26;;;;;;;3.47;2.38;;;-1.60;99.90;;;;;;5071892;28;20618;-68
2022/01/11 04:56:52;;;;;;;3.80;2.33;;;-1.60;99.90;;;;;;5071832;28;20021;-68
2022/01/11 04:59:17;;;;;;;3.97;2.10;;;-1.60;99.90;;;;;;5071691;28;20078;-68
2022/01/11 05:01:43;;;;;;;4.53;2.50;;;-1.60;99.90;;;;;;5075888;28;20028;-68
2022/01/11 05:04:09;;;;;;;4.75;2.42;;;-1.50;99.90;;;;;;5075664;28;20500;-68
2022/01/11 05:06:35;;;;;;;3.75;1.95;;;-1.50;99.90;;;;;;5075878;28;20058;-68
2022/01/11 05:09:02;;;;;;;4.65;2.60;;;-1.50;99.90;;;;;;5075579;28;20029;-67
2022/01/11 05:11:27;;;;;;;3.42;2.40;;;-1.50;99.90;;;;;;5075780;28;20059;-67
2022/01/11 05:13:53;;;;;;;3.92;2.42;;;-1.50;99.90;;;;;;5076081;28;20028;-68
2022/01/11 05:16:19;;;;;;;3.80;2.30;;;-1.40;99.90;;;;;;5075670;28;20024;-67
2022/01/11 05:18:45;;;;;;;3.05;2.25;;;-1.40;99.90;;;;;;5075740;28;20025;-67
2022/01/11 05:21:10;;;;;;;5.32;2.67;;;-1.40;99.90;;;;;;5075446;28;20442;-67
2022/01/11 05:23:36;;;;;;;4.43;2.75;;;-1.40;99.90;;;;;;5075504;28;20028;-67
2022/01/11 05:26:02;;;;;;;3.47;2.20;;;-1.40;99.90;;;;;;5075237;28;20025;-68
2022/01/11 05:28:29;;;;;;;4.40;2.47;;;-1.40;99.90;;;;;;5075220;28;20021;-69
2022/01/11 05:30:54;;;;;;;2.50;2.30;;;-1.40;99.90;;;;;;5075288;28;20048;-68
2022/01/11 05:33:20;;;;;;;5.70;2.80;;;-1.40;99.90;;;;;;5074937;28;20058;-66
2022/01/11 05:35:47;;;;;;;3.60;2.55;;;-1.40;99.90;;;;;;5075179;28;20099;-64
2022/01/11 05:38:13;;;;;;;3.83;2.58;;;-1.40;99.90;;;;;;5074710;28;20040;-71
2022/01/11 05:40:39;;;;;;;4.00;2.33;;;-1.30;99.90;;;;;;5074987;28;20020;-67
2022/01/11 05:43:06;;;;;;;5.38;2.58;;;-1.30;99.90;;;;;;5074860;28;20024;-67
2022/01/11 05:45:32;;;;;;;5.10;2.85;;;-1.30;99.90;;;;;;5074722;28;20085;-68
2022/01/11 05:48:00;;;;;;;4.68;2.72;;;-0.50;99.90;;;;;;5069561;28;20591;-67
2022/01/11 05:50:26;;;;;;;4.00;2.60;;;-0.60;99.90;;;;;;5054190;28;20808;-66
2022/01/11 05:52:52;;;;;;;3.53;2.35;;;-0.80;99.90;;;;;;5054915;28;20017;-67
2022/01/11 05:55:18;;;;;;;6.47;2.85;;;-0.90;99.90;;;;;;5054215;28;20051;-67
2022/01/11 05:57:44;;;;;;;3.55;2.72;;;-1.00;99.90;;;;;;5054250;28;20468;-67
2022/01/11 06:00:15;;;;;;;6.40;2.88;;;-1.10;99.90;;;;;;5053910;28;20067;-66
2022/01/11 06:02:44;;;;;;;5.00;2.97;;;-1.10;99.90;;;;;;5051906;28;20032;-66
2022/01/11 06:05:10;;;;;;;3.92;2.72;;;-1.10;99.90;;;;;;5053648;28;20045;-66
2022/01/11 06:07:37;;;;;;;8.43;2.72;;;-1.10;99.90;;;;;;5053449;28;20029;-66
2022/01/11 06:10:04;;;;;;;5.57;3.10;;;-1.10;99.90;;;;;;5053764;28;20031;-66
2022/01/11 06:12:29;;;;;;;5.18;2.50;;;-1.10;99.90;;;;;;5053540;28;20108;-66
2022/01/11 06:14:55;;;;;;;5.03;3.08;;;-1.20;99.90;;;;;;5054093;28;20103;-66
2022/01/11 06:17:21;;;;;;;4.65;2.80;;;-1.10;99.90;;;;;;5054036;28;20073;-67
2022/01/11 06:19:46;;;;;;;4.45;2.80;;;-1.10;99.90;;;;;;5053916;28;20075;-65
2022/01/11 06:22:12;;;;;;;4.30;2.83;;;-0.90;99.90;;;;;;5054556;28;20023;-63
2022/01/11 06:24:38;;;;;;;6.13;2.90;;;-0.70;99.90;;;;;;5054471;28;20041;-64
2022/01/11 06:27:04;;;;;;;9.02;3.15;;;-0.50;99.90;;;;;;5054592;28;20418;-64
2022/01/11 06:29:30;;;;;;;9.38;3.08;;;-0.20;99.90;;;;;;5054609;28;20116;-64
2022/01/11 06:31:55;;;;;;;6.93;3.13;;;-0.20;99.90;;;;;;5054474;28;20104;-64
2022/01/11 06:34:21;;;;;;;8.63;2.97;;;-0.20;99.90;;;;;;5054312;28;20027;-64
2022/01/11 06:36:47;;;;;;;5.80;2.80;;;-0.10;99.90;;;;;;5054280;28;20539;-64
2022/01/11 06:39:13;;;;;;;4.53;2.75;;;-0.20;99.90;;;;;;5053907;28;20032;-66
2022/01/11 06:41:38;;;;;;;7.93;3.08;;;-0.30;99.90;;;;;;5054075;28;20108;-67
2022/01/11 06:44:06;;;;;;;6.53;3.15;;;-0.20;99.90;;;;;;5053940;28;20087;-66
2022/01/11 06:46:32;;;;;;;5.18;3.03;;;-0.20;99.90;;;;;;5053843;28;20134;-67
2022/01/11 06:48:59;;;;;;;9.70;2.63;;;-0.10;99.90;;;;;;5053850;28;20094;-68
2022/01/11 06:51:25;;;;;;;8.93;3.22;;;-0.10;99.90;;;;;;5053769;28;20021;-67
2022/01/11 06:53:51;;;;;;;13.00;3.60;;;0.10;99.90;;;;;;5053759;28;20075;-67
2022/01/11 06:56:17;;;;;;;6.40;3.58;;;0.10;99.90;;;;;;5053638;28;20407;-67
2022/01/11 06:58:44;;;;;;;23.42;11.20;;;0.10;99.90;;;;;;5053941;28;20040;-67
2022/01/11 07:01:10;;;;;;;17.83;9.55;;;-0.10;99.90;;;;;;5053845;28;20055;-67
2022/01/11 07:03:36;;;;;;;6.60;4.20;;;-0.10;99.90;;;;;;5053493;28;20021;-67
2022/01/11 07:06:03;;;;;;;7.80;3.85;;;-0.20;99.90;;;;;;5053856;28;20434;-67
2022/01/11 07:08:29;;;;;;;5.95;4.20;;;-0.20;99.90;;;;;;5053439;28;20021;-69
2022/01/11 07:10:54;;;;;;;12.02;3.72;;;-0.10;99.90;;;;;;5053721;28;20107;-68
2022/01/11 07:13:21;;;;;;;9.48;3.50;;;0.00;99.90;;;;;;5053367;28;20426;-68
2022/01/11 07:15:46;;;;;;;6.30;3.40;;;0.30;99.90;;;;;;5053505;28;20029;-69
2022/01/11 07:18:12;;;;;;;5.18;3.35;;;0.30;99.90;;;;;;5053319;28;20108;-70
2022/01/11 07:20:42;;;;;;;7.38;4.07;;;0.30;99.90;;;;;;5053441;28;20017;-68
2022/01/11 07:23:09;;;;;;;4.40;3.40;;;0.30;99.90;;;;;;5052402;28;20021;-65
2022/01/11 07:25:35;;;;;;;8.50;3.70;;;0.40;99.90;;;;;;5052946;28;20044;-65
2022/01/11 07:28:01;;;;;;;7.82;3.78;;;0.70;99.90;;;;;;5052974;28;20108;-65
2022/01/11 07:30:27;;;;;;;6.22;3.70;;;0.70;99.90;;;;;;5052966;28;20378;-65
2022/01/11 07:32:53;;;;;;;11.45;3.90;;;0.70;99.90;;;;;;5052995;28;20025;-65
2022/01/11 07:35:19;;;;;;;6.30;4.00;;;0.50;99.90;;;;;;5052943;28;20107;-67
2022/01/11 07:37:45;;;;;;;11.07;6.07;;;0.30;99.90;;;;;;5052729;28;20135;-67
2022/01/11 07:40:12;;;;;;;9.73;4.68;;;0.10;99.90;;;;;;5052654;28;20025;-66
2022/01/11 07:42:38;;;;;;;11.40;4.18;;;0.10;99.90;;;;;;5053010;28;20108;-67
2022/01/11 07:45:04;;;;;;;8.32;5.45;;;0.10;99.90;;;;;;5052325;28;20040;-69
2022/01/11 07:47:30;;;;;;;15.38;6.25;;;0.20;99.90;;;;;;5052285;28;20021;-69
2022/01/11 07:49:57;;;;;;;10.20;5.20;;;0.20;99.90;;;;;;5052482;28;20021;-69
2022/01/11 07:52:23;;;;;;;10.40;3.67;;;0.90;99.90;;;;;;5052813;28;20032;-70
2022/01/11 07:54:49;;;;;;;6.35;4.03;;;1.70;99.90;;;;;;5052643;28;20075;-69
2022/01/11 07:57:14;;;;;;;8.10;3.45;;;2.10;99.90;;;;;;5051993;28;20590;-69
2022/01/11 07:59:40;;;;;;;11.30;3.95;;;2.60;99.90;;;;;;5052373;28;20029;-69
2022/01/11 08:02:06;;;;;;;5.03;3.30;;;3.00;99.90;;;;;;5052175;28;20048;-69
2022/01/11 08:04:31;;;;;;;8.20;3.38;;;3.40;99.90;;;;;;5051348;28;20400;-68
2022/01/11 08:06:59;;;;;;;6.30;3.58;;;3.60;99.90;;;;;;5034433;28;20040;-70
2022/01/11 08:09:25;;;;;;;9.35;3.00;;;3.80;99.90;;;;;;5052132;28;20021;-68
2022/01/11 08:11:51;;;;;;;8.15;3.40;;;4.20;99.90;;;;;;5052582;28;20105;-68
2022/01/11 08:14:17;;;;;;;6.45;3.30;;;4.10;99.90;;;;;;5052339;28;20052;-69
2022/01/11 08:16:43;;;;;;;5.20;2.90;;;3.40;99.90;;;;;;5052133;28;20025;-67
2022/01/11 08:19:09;;;;;;;5.55;3.20;;;2.90;99.90;;;;;;5052373;28;20031;-67
2022/01/11 08:21:34;;;;;;;6.50;3.30;;;2.30;99.90;;;;;;5052049;28;20400;-65
2022/01/11 08:24:00;;;;;;;5.20;3.28;;;1.80;99.90;;;;;;5052172;28;20033;-63
2022/01/11 08:26:26;;;;;;;8.35;2.92;;;1.80;99.90;;;;;;5033913;28;20031;-64
2022/01/11 08:28:51;;;;;;;4.15;3.03;;;1.70;99.90;;;;;;5051479;28;20115;-63
2022/01/11 08:31:19;;;;;;;5.65;3.63;;;2.00;99.90;;;;;;5051219;28;20438;-63
2022/01/11 08:33:46;;;;;;;6.30;3.63;;;1.70;99.90;;;;;;5051496;28;20040;-63
2022/01/11 08:36:11;;;;;;;8.02;4.13;;;1.40;99.90;;;;;;5050931;28;20016;-64
2022/01/11 08:38:37;;;;;;;7.30;3.88;;;1.20;99.90;;;;;;5051048;28;20381;-63
2022/01/11 08:41:03;;;;;;;6.70;4.43;;;1.10;99.90;;;;;;5051945;28;20032;-63
2022/01/11 08:43:28;;;;;;;6.28;4.05;;;1.00;99.90;;;;;;5051771;28;20021;-63
2022/01/11 08:45:56;;;;;;;9.23;4.13;;;0.90;99.90;;;;;;5051411;28;20301;-63
2022/01/11 08:48:22;;;;;;;8.00;3.88;;;0.80;99.90;;;;;;5051895;28;20392;-63
2022/01/11 08:50:52;;;;;;;5.65;3.85;;;1.20;99.90;;;;;;5051906;28;20017;-63
2022/01/11 08:53:21;;;;;;;8.13;4.68;;;1.10;99.90;;;;;;5051617;28;20116;-63
2022/01/11 08:55:48;;;;;;;8.52;4.30;;;1.00;99.90;;;;;;5051888;28;20025;-63
2022/01/11 08:58:14;;;;;;;11.77;4.50;;;0.90;99.90;;;;;;5051805;28;20391;-63
2022/01/11 09:00:40;;;;;;;8.13;4.95;;;0.80;99.90;;;;;;5051834;28;20112;-63
2022/01/11 09:03:06;;;;;;;6.00;4.00;;;0.70;99.90;;;;;;5051605;28;20117;-63
2022/01/11 09:05:31;;;;;;;6.53;4.18;;;0.60;99.90;;;;;;5051279;28;20778;-63
2022/01/11 09:07:57;;;;;;;7.45;3.70;;;0.60;99.90;;;;;;5051927;28;20106;-63
2022/01/11 09:10:23;;;;;;;7.80;4.03;;;0.60;99.90;;;;;;5051748;28;20052;-63
2022/01/11 09:12:50;;;;;;;10.05;3.95;;;0.50;99.90;;;;;;5051719;28;20486;-63
2022/01/11 09:15:16;;;;;;;5.45;3.65;;;0.50;99.90;;;;;;5051698;28;20033;-63
2022/01/11 09:17:42;;;;;;;6.50;4.10;;;0.50;99.90;;;;;;5017392;28;20365;-63
2022/01/11 09:20:10;;;;;;;5.47;4.03;;;0.50;99.90;;;;;;5051724;28;20021;-63
2022/01/11 09:22:36;;;;;;;8.30;4.10;;;0.50;99.90;;;;;;5051495;28;20468;-63
2022/01/11 09:25:03;;;;;;;7.00;4.57;;;0.50;99.90;;;;;;5051404;28;20043;-63
2022/01/11 09:27:29;;;;;;;7.78;4.25;;;0.50;99.90;;;;;;5051330;28;20017;-63
2022/01/11 09:29:54;;;;;;;7.43;3.83;;;0.50;99.90;;;;;;5051304;28;20120;-63
2022/01/11 09:32:20;;;;;;;6.50;3.85;;;0.50;99.90;;;;;;5050748;28;20050;-63
2022/01/11 09:34:46;;;;;;;6.25;4.03;;;0.50;99.90;;;;;;5051494;28;20028;-63
2022/01/11 09:37:13;;;;;;;6.28;4.47;;;0.50;99.90;;;;;;5051289;28;20037;-63
2022/01/11 09:39:39;;;;;;;6.22;3.80;;;0.50;99.90;;;;;;5050961;28;20032;-63
2022/01/11 09:42:06;;;;;;;8.25;4.20;;;0.50;99.90;;;;;;5051427;28;20132;-66
2022/01/11 09:44:35;;;;;;;6.80;3.72;;;0.60;99.90;;;;;;5051133;28;20025;-66
2022/01/11 09:47:01;;;;;;;6.40;4.10;;;1.60;99.90;;;;;;5034546;28;20036;-66
2022/01/11 09:49:27;;;;;;;5.80;3.55;;;1.80;99.90;;;;;;5054975;28;20032;-66
2022/01/11 09:51:53;;;;;;;7.00;3.45;;;1.50;99.90;;;;;;5055062;28;20412;-66
2022/01/11 09:54:20;;;;;;;6.68;4.30;;;1.20;99.90;;;;;;5054856;28;20025;-66
2022/01/11 09:56:47;;;;;;;6.63;4.22;;;1.00;99.90;;;;;;5055161;28;20025;-66
2022/01/11 09:59:15;;;;;;;7.68;3.92;;;0.90;99.90;;;;;;5054727;28;20021;-66
2022/01/11 10:01:41;;;;;;;7.65;4.50;;;0.80;99.90;;;;;;5054828;28;20599;-67
2022/01/11 10:04:12;;;;;;;5.90;3.97;;;0.70;99.90;;;;;;5054674;28;20036;-67
2022/01/11 10:06:42;;;;;;;10.75;3.15;;;0.70;99.90;;;;;;5054576;28;20035;-67
2022/01/11 10:09:21;;;;;;;6.38;4.45;;;0.90;99.90;;;;;;5054223;28;20025;-67
2022/01/11 10:11:52;;;;;;;7.65;4.20;;;1.70;99.90;;;;;;5052690;28;20021;-68
2022/01/11 10:14:32;;;;;;;8.30;4.38;;;1.50;99.90;;;;;;5054439;28;20472;-68
2022/01/11 10:17:18;;;;;;;6.80;3.95;;;1.30;99.90;;;;;;5054437;28;20031;-68
2022/01/11 10:19:48;;;;;;;7.13;4.05;;;1.10;99.90;;;;;;5054481;28;20029;-67
2022/01/11 10:22:18;;;;;;;7.35;4.32;;;1.00;99.90;;;;;;5054258;28;20035;-66
2022/01/11 10:24:46;;;;;;;7.30;3.70;;;0.90;99.90;;;;;;5055751;28;20059;-66
2022/01/11 10:27:21;;;;;;;6.10;4.18;;;0.90;99.90;;;;;;5054975;28;20016;-67
2022/01/11 10:29:52;;;;;;;7.00;3.88;;;0.80;99.90;;;;;;5054264;28;20158;-67
2022/01/11 10:32:26;;;;;;;7.75;4.43;;;0.80;99.90;;;;;;5054012;28;20468;-67
2022/01/11 10:34:56;;;;;;;7.20;4.00;;;0.80;99.90;;;;;;5053930;28;20032;-67
2022/01/11 10:37:36;;;;;;;7.03;4.35;;;0.80;99.90;;;;;;5053293;28;20076;-67
2022/01/11 10:40:32;;;;;;;6.38;4.10;;;0.80;99.90;;;;;;5054062;28;20037;-67
2022/01/11 10:43:01;;;;;;;5.78;3.70;;;0.80;99.90;;;;;;5050797;28;20036;-67
2022/01/11 10:45:38;;;;;;;6.85;3.97;;;0.80;99.90;;;;;;5053840;28;20040;-67
2022/01/11 10:48:06;;;;;;;7.25;4.05;;;0.80;99.90;;;;;;5054142;28;20021;-67
2022/01/11 10:50:39;;;;;;;9.02;4.00;;;0.80;99.90;;;;;;5053918;28;20070;-67
2022/01/11 10:53:18;;;;;;;7.45;4.20;;;0.70;99.90;;;;;;5053560;28;20021;-67
2022/01/11 10:55:48;;;;;;;7.15;3.85;;;0.80;99.90;;;;;;5051670;28;20036;-67
2022/01/11 10:58:14;;;;;;;11.32;4.57;;;0.70;99.90;;;;;;5053724;28;20056;-66
2022/01/11 11:00:46;;;;;;;8.38;4.13;;;0.80;99.90;;;;;;5053545;28;20024;-66
2022/01/11 11:03:15;;;;;;;8.02;4.30;;;0.80;99.90;;;;;;5053743;28;20021;-68
2022/01/11 11:05:49;;;;;;;8.48;4.57;;;0.70;99.90;;;;;;5053371;28;20132;-69
2022/01/11 11:08:18;;;;;;;7.85;4.68;;;0.80;99.90;;;;;;5053610;28;20040;-68
2022/01/11 11:10:51;;;;;;;6.28;4.03;;;0.80;99.90;;;;;;5053518;28;20028;-68
2022/01/11 11:13:29;;;;;;;8.52;4.20;;;0.80;99.90;;;;;;5053469;28;20025;-69
2022/01/11 11:15:58;;;;;;;6.93;4.43;;;0.80;99.90;;;;;;5053490;28;20025;-69
2022/01/11 11:18:33;;;;;;;7.05;4.22;;;0.80;99.90;;;;;;5053508;28;20027;-68
2022/01/11 11:21:14;;;;;;;8.95;4.78;;;0.80;99.90;;;;;;5053358;28;20029;-68
2022/01/11 11:23:40;;;;;;;5.53;3.60;;;0.80;99.90;;;;;;5053236;28;20025;-68
2022/01/11 11:26:06;;;;;;;7.70;4.60;;;0.80;99.90;;;;;;5053198;28;20036;-68
2022/01/11 11:28:33;;;;;;;6.75;4.35;;;0.80;99.90;;;;;;5053115;28;20025;-68
2022/01/11 11:30:59;;;;;;;9.63;4.45;;;0.80;99.90;;;;;;5053189;28;20091;-68
2022/01/11 11:33:25;;;;;;;8.13;4.25;;;0.80;99.90;;;;;;5053111;28;20017;-68
2022/01/11 11:35:51;;;;;;;9.48;5.10;;;0.80;99.90;;;;;;5035456;28;20067;-68
2022/01/11 11:38:21;;;;;;;10.88;4.60;;;0.80;99.90;;;;;;5052818;28;20431;-69
2022/01/11 11:40:52;;;;;;;7.20;4.77;;;0.80;99.90;;;;;;5052980;28;20561;-69
2022/01/11 11:43:18;;;;;;;7.45;4.90;;;0.80;99.90;;;;;;5052933;28;20021;-69
2022/01/11 11:45:44;;;;;;;8.35;4.50;;;0.80;99.90;;;;;;5052744;28;20098;-69
2022/01/11 11:48:18;;;;;;;8.20;4.80;;;0.80;99.90;;;;;;5052742;28;20022;-69
2022/01/11 11:50:55;;;;;;;9.80;5.15;;;0.80;99.90;;;;;;5052789;28;20037;-66
2022/01/11 11:53:35;;;;;;;9.30;5.07;;;0.90;99.90;;;;;;5052671;28;20511;-69
2022/01/11 11:56:18;;;;;;;7.80;4.93;;;0.90;99.90;;;;;;5052069;28;20416;-69
2022/01/11 11:58:51;;;;;;;7.72;4.63;;;0.90;99.90;;;;;;5051745;28;20029;-69
2022/01/11 12:01:31;;;;;;;9.25;5.28;;;0.90;99.90;;;;;;5052557;28;20056;-69
2022/01/11 12:03:57;;;;;;;;;;;0.90;99.90;;;;;;5052322;28;20483;-69
2022/01/11 12:06:27;;;;;;;9.75;4.85;;;0.90;99.90;;;;;;5051832;28;19991;-68
2022/01/11 12:09:05;;;;;;;;;;;0.90;99.90;;;;;;5052727;28;20488;-68
2022/01/11 12:11:36;;;;;;;6.22;4.43;;;0.90;99.90;;;;;;5052210;28;19911;-69
2022/01/11 12:14:03;;;;;;;8.38;4.68;;;0.90;99.90;;;;;;5052692;28;20095;-68
2022/01/11 12:16:34;;;;;;;7.68;4.95;;;0.90;99.90;;;;;;5052303;28;20025;-68
2022/01/11 12:19:05;;;;;;;8.25;4.88;;;0.90;99.90;;;;;;5052277;28;20021;-68
2022/01/11 12:21:53;;;;;;;9.82;5.65;;;0.90;99.90;;;;;;5034445;28;20025;-68
2022/01/11 12:24:39;;;;;;;8.23;4.80;;;1.00;99.90;;;;;;5052105;28;20061;-69
2022/01/11 12:27:08;;;;;;;10.68;5.25;;;1.00;99.90;;;;;;5052154;28;20029;-69
2022/01/11 12:29:34;;;;;;;8.07;5.07;;;1.00;99.90;;;;;;5051903;28;20063;-69
2022/01/11 12:32:10;;;;;;;6.68;4.82;;;1.00;99.90;;;;;;5052081;28;20423;-68
2022/01/11 12:34:48;;;;;;;9.95;5.60;;;0.90;99.90;;;;;;5034075;28;20028;-68
2022/01/11 12:37:21;;;;;;;9.80;4.60;;;1.00;99.90;;;;;;5051750;28;20098;-69
2022/01/11 12:40:22;;;;;;;7.30;5.25;;;1.00;99.90;;;;;;5051756;28;20086;-69
2022/01/11 12:42:53;;;;;;;7.03;4.80;;;1.00;99.90;;;;;;5051865;28;20047;-69
2022/01/11 12:45:54;;;;;;;9.20;4.80;;;1.00;99.90;;;;;;5051398;28;20041;-69
2022/01/11 12:48:49;;;;;;;8.48;5.25;;;1.00;99.90;;;;;;5044589;28;20030;-69
2022/01/11 12:51:33;;;;;;;5.97;4.28;;;1.10;99.90;;;;;;5048773;28;20032;-69
2022/01/11 12:54:15;;;;;;;7.30;4.63;;;1.00;99.90;;;;;;5051801;28;20045;-69
2022/01/11 12:56:41;;;;;;;8.88;5.38;;;1.60;99.90;;;;;;5051716;28;20029;-68
2022/01/11 12:59:08;;;;;;;8.75;4.93;;;1.70;99.90;;;;;;5051724;28;20112;-69
2022/01/11 13:01:34;;;;;;;7.95;4.78;;;1.60;99.90;;;;;;5051653;28;20468;-69
2022/01/11 13:04:01;;;;;;;7.00;4.60;;;1.50;99.90;;;;;;5051835;28;20021;-69
2022/01/11 13:06:31;;;;;;;10.48;5.20;;;1.40;99.90;;;;;;5033434;28;20396;-69
2022/01/11 13:09:00;;;;;;;9.40;5.10;;;1.30;99.90;;;;;;5049121;28;20025;-69
2022/01/11 13:11:26;;;;;;;9.90;5.15;;;1.30;99.90;;;;;;5051798;28;20070;-69
2022/01/11 13:14:17;;;;;;;8.45;4.50;;;1.20;99.90;;;;;;5051590;28;20032;-69
2022/01/11 13:16:46;;;;;;;10.82;5.55;;;1.20;99.90;;;;;;5051551;28;20025;-69
2022/01/11 13:19:15;;;;;;;7.40;5.10;;;1.20;99.90;;;;;;5051592;28;20093;-69
2022/01/11 13:21:41;;;;;;;9.15;5.32;;;1.20;99.90;;;;;;5053636;28;20070;-69
2022/01/11 13:24:23;;;;;;;6.93;4.05;;;1.20;99.90;;;;;;5055253;28;20036;-69
2022/01/11 13:26:53;;;;;;;10.05;5.78;;;1.30;99.90;;;;;;5054907;28;20170;-65
2022/01/11 13:29:20;;;;;;;8.48;5.65;;;1.60;99.90;;;;;;5054655;28;20025;-66
2022/01/11 13:31:49;;;;;;;8.80;5.32;;;1.60;99.90;;;;;;5056712;28;20392;-66
2022/01/11 13:34:16;;;;;;;7.75;5.13;;;1.50;99.90;;;;;;5055356;28;20039;-66
2022/01/11 13:36:47;;;;;;;8.70;5.05;;;1.40;99.90;;;;;;5054958;28;20029;-66
2022/01/11 13:39:22;;;;;;;7.78;5.13;;;1.30;99.90;;;;;;5055651;28;20047;-69
2022/01/11 13:41:53;;;;;;;9.77;5.78;;;1.70;99.90;;;;;;5055241;28;20028;-68
2022/01/11 13:44:20;;;;;;;8.70;5.53;;;1.80;99.90;;;;;;5054400;28;20028;-68
2022/01/11 13:46:47;;;;;;;11.25;5.53;;;1.60;99.90;;;;;;5054278;28;20509;-66
2022/01/11 13:49:15;;;;;;;8.57;5.60;;;1.60;99.90;;;;;;5054592;28;20032;-66
2022/01/11 13:51:47;;;;;;;10.63;6.18;;;1.60;99.90;;;;;;5054121;28;20183;-66
2022/01/11 13:54:14;;;;;;;8.70;6.38;;;1.60;99.90;;;;;;5055150;28;20388;-66
2022/01/11 13:56:43;;;;;;;8.23;5.30;;;1.50;99.90;;;;;;5054827;28;20465;-66
2022/01/11 13:59:11;;;;;;;8.60;5.38;;;1.50;99.90;;;;;;5054848;28;20082;-66
2022/01/11 14:01:38;;;;;;;8.90;5.78;;;1.50;99.90;;;;;;5054825;28;20025;-66
2022/01/11 14:04:13;;;;;;;8.88;5.35;;;1.50;99.90;;;;;;5054726;28;20076;-66
2022/01/11 14:06:42;;;;;;;13.52;5.88;;;1.40;99.90;;;;;;5036808;28;20052;-66
2022/01/11 14:09:16;;;;;;;13.93;5.85;;;1.40;99.90;;;;;;5054618;28;20032;-66
2022/01/11 14:11:51;;;;;;;8.50;5.35;;;1.40;99.90;;;;;;5054609;28;20100;-66